sensor_id;sensor_type;location;lat;lon;timestamp;P1;durP1;ratioP1;P2;durP2;ratioP2
69892;SDS011;61212;42.688;22.176;2022-12-28T00:00:25;17.08;;;11.75;;
69892;SDS011;61212;42.688;22.176;2022-12-28T00:02:51;18.45;;;11.98;;
69892;SDS011;61212;42.688;22.176;2022-12-28T00:05:17;18.08;;;11.05;;
69892;SDS011;61212;42.688;22.176;2022-12-28T00:07:43;17.23;;;11.48;;
69892;SDS011;61212;42.688;22.176;2022-12-28T00:10:09;19.73;;;11.48;;
69892;SDS011;61212;42.688;22.176;2022-12-28T00:12:35;20.60;;;12.90;;
69892;SDS011;61212;42.688;22.176;2022-12-28T00:15:02;20.55;;;12.85;;
69892;SDS011;61212;42.688;22.176;2022-12-28T00:17:28;41.85;;;20.50;;
69892;SDS011;61212;42.688;22.176;2022-12-28T00:19:54;25.77;;;14.48;;
69892;SDS011;61212;42.688;22.176;2022-12-28T00:22:20;19.38;;;11.60;;
69892;SDS011;61212;42.688;22.176;2022-12-28T00:24:46;16.73;;;11.48;;
69892;SDS011;61212;42.688;22.176;2022-12-28T00:27:12;15.98;;;10.50;;
69892;SDS011;61212;42.688;22.176;2022-12-28T00:29:38;19.38;;;11.50;;
69892;SDS011;61212;42.688;22.176;2022-12-28T00:32:04;22.25;;;12.80;;
69892;SDS011;61212;42.688;22.176;2022-12-28T00:34:30;24.13;;;13.85;;
69892;SDS011;61212;42.688;22.176;2022-12-28T00:36:56;17.38;;;11.20;;
69892;SDS011;61212;42.688;22.176;2022-12-28T00:39:22;18.23;;;11.98;;
69892;SDS011;61212;42.688;22.176;2022-12-28T00:41:48;21.13;;;11.65;;
69892;SDS011;61212;42.688;22.176;2022-12-28T00:44:15;18.23;;;11.90;;
69892;SDS011;61212;42.688;22.176;2022-12-28T00:46:41;21.02;;;13.10;;
69892;SDS011;61212;42.688;22.176;2022-12-28T00:49:07;19.85;;;11.77;;
69892;SDS011;61212;42.688;22.176;2022-12-28T00:51:33;38.38;;;20.38;;
69892;SDS011;61212;42.688;22.176;2022-12-28T00:53:59;50.03;;;23.35;;
69892;SDS011;61212;42.688;22.176;2022-12-28T00:56:25;20.58;;;11.88;;
69892;SDS011;61212;42.688;22.176;2022-12-28T00:58:55;17.42;;;11.10;;
69892;SDS011;61212;42.688;22.176;2022-12-28T01:01:22;22.13;;;11.30;;
69892;SDS011;61212;42.688;22.176;2022-12-28T01:03:48;15.63;;;10.70;;
69892;SDS011;61212;42.688;22.176;2022-12-28T01:06:15;17.27;;;11.00;;
69892;SDS011;61212;42.688;22.176;2022-12-28T01:08:42;16.83;;;10.70;;
69892;SDS011;61212;42.688;22.176;2022-12-28T01:11:09;21.42;;;11.63;;
69892;SDS011;61212;42.688;22.176;2022-12-28T01:13:35;19.15;;;12.35;;
69892;SDS011;61212;42.688;22.176;2022-12-28T01:16:15;21.27;;;13.48;;
69892;SDS011;61212;42.688;22.176;2022-12-28T01:18:42;22.48;;;14.43;;
69892;SDS011;61212;42.688;22.176;2022-12-28T01:21:19;24.85;;;14.05;;
69892;SDS011;61212;42.688;22.176;2022-12-28T01:23:45;28.77;;;16.00;;
69892;SDS011;61212;42.688;22.176;2022-12-28T01:26:12;28.42;;;14.50;;
69892;SDS011;61212;42.688;22.176;2022-12-28T01:28:39;23.45;;;14.57;;
69892;SDS011;61212;42.688;22.176;2022-12-28T01:31:06;24.63;;;14.55;;
69892;SDS011;61212;42.688;22.176;2022-12-28T01:33:32;40.50;;;19.95;;
69892;SDS011;61212;42.688;22.176;2022-12-28T01:36:02;41.30;;;23.35;;
69892;SDS011;61212;42.688;22.176;2022-12-28T01:38:29;43.08;;;21.38;;
69892;SDS011;61212;42.688;22.176;2022-12-28T01:40:55;51.10;;;26.45;;
69892;SDS011;61212;42.688;22.176;2022-12-28T01:46:03;33.83;;;18.40;;
69892;SDS011;61212;42.688;22.176;2022-12-28T01:48:29;28.50;;;16.95;;
69892;SDS011;61212;42.688;22.176;2022-12-28T01:50:56;34.40;;;19.05;;
69892;SDS011;61212;42.688;22.176;2022-12-28T01:53:22;40.22;;;20.52;;
69892;SDS011;61212;42.688;22.176;2022-12-28T01:55:48;35.55;;;18.30;;
69892;SDS011;61212;42.688;22.176;2022-12-28T01:58:16;42.60;;;22.05;;
69892;SDS011;61212;42.688;22.176;2022-12-28T02:00:44;40.38;;;21.27;;
69892;SDS011;61212;42.688;22.176;2022-12-28T02:03:12;49.35;;;24.45;;
69892;SDS011;61212;42.688;22.176;2022-12-28T02:05:40;47.63;;;24.23;;
69892;SDS011;61212;42.688;22.176;2022-12-28T02:08:08;42.95;;;22.52;;
69892;SDS011;61212;42.688;22.176;2022-12-28T02:10:36;51.28;;;25.60;;
69892;SDS011;61212;42.688;22.176;2022-12-28T02:13:02;58.65;;;28.33;;
69892;SDS011;61212;42.688;22.176;2022-12-28T02:15:29;52.60;;;27.08;;
69892;SDS011;61212;42.688;22.176;2022-12-28T02:17:55;54.30;;;27.85;;
69892;SDS011;61212;42.688;22.176;2022-12-28T02:20:21;43.67;;;22.10;;
69892;SDS011;61212;42.688;22.176;2022-12-28T02:25:32;35.17;;;19.30;;
69892;SDS011;61212;42.688;22.176;2022-12-28T02:28:08;31.40;;;18.42;;
69892;SDS011;61212;42.688;22.176;2022-12-28T02:30:46;36.55;;;18.10;;
69892;SDS011;61212;42.688;22.176;2022-12-28T02:33:25;31.27;;;17.33;;
69892;SDS011;61212;42.688;22.176;2022-12-28T02:38:22;37.28;;;19.17;;
69892;SDS011;61212;42.688;22.176;2022-12-28T02:40:52;38.97;;;19.00;;
69892;SDS011;61212;42.688;22.176;2022-12-28T02:43:19;36.63;;;18.10;;
69892;SDS011;61212;42.688;22.176;2022-12-28T02:45:46;29.67;;;15.77;;
69892;SDS011;61212;42.688;22.176;2022-12-28T02:48:41;27.67;;;15.45;;
69892;SDS011;61212;42.688;22.176;2022-12-28T02:54:03;33.53;;;18.02;;
69892;SDS011;61212;42.688;22.176;2022-12-28T03:04:11;32.15;;;16.15;;
69892;SDS011;61212;42.688;22.176;2022-12-28T03:09:38;25.77;;;14.83;;
69892;SDS011;61212;42.688;22.176;2022-12-28T03:12:16;53.40;;;26.33;;
69892;SDS011;61212;42.688;22.176;2022-12-28T03:17:12;30.20;;;16.00;;
69892;SDS011;61212;42.688;22.176;2022-12-28T03:20:15;19.85;;;12.38;;
69892;SDS011;61212;42.688;22.176;2022-12-28T03:23:00;17.92;;;10.13;;
69892;SDS011;61212;42.688;22.176;2022-12-28T03:25:45;19.88;;;11.73;;
69892;SDS011;61212;42.688;22.176;2022-12-28T03:28:30;22.55;;;13.00;;
69892;SDS011;61212;42.688;22.176;2022-12-28T03:31:17;18.48;;;11.27;;
69892;SDS011;61212;42.688;22.176;2022-12-28T03:33:44;18.77;;;11.02;;
69892;SDS011;61212;42.688;22.176;2022-12-28T03:41:07;21.13;;;12.73;;
69892;SDS011;61212;42.688;22.176;2022-12-28T03:43:35;24.20;;;14.98;;
69892;SDS011;61212;42.688;22.176;2022-12-28T03:48:36;35.63;;;21.45;;
69892;SDS011;61212;42.688;22.176;2022-12-28T03:51:02;31.23;;;20.02;;
69892;SDS011;61212;42.688;22.176;2022-12-28T03:53:29;30.92;;;18.38;;
69892;SDS011;61212;42.688;22.176;2022-12-28T03:56:11;25.75;;;16.17;;
69892;SDS011;61212;42.688;22.176;2022-12-28T03:58:37;26.75;;;16.58;;
69892;SDS011;61212;42.688;22.176;2022-12-28T04:01:03;31.05;;;19.15;;
69892;SDS011;61212;42.688;22.176;2022-12-28T04:03:30;38.50;;;20.50;;
69892;SDS011;61212;42.688;22.176;2022-12-28T04:05:56;30.98;;;16.67;;
69892;SDS011;61212;42.688;22.176;2022-12-28T04:08:22;31.65;;;17.50;;
69892;SDS011;61212;42.688;22.176;2022-12-28T04:10:48;32.67;;;19.42;;
69892;SDS011;61212;42.688;22.176;2022-12-28T04:13:14;31.33;;;17.38;;
69892;SDS011;61212;42.688;22.176;2022-12-28T04:15:40;22.17;;;13.63;;
69892;SDS011;61212;42.688;22.176;2022-12-28T04:18:06;20.00;;;11.95;;
69892;SDS011;61212;42.688;22.176;2022-12-28T04:20:32;21.48;;;11.02;;
69892;SDS011;61212;42.688;22.176;2022-12-28T04:22:58;24.95;;;11.05;;
69892;SDS011;61212;42.688;22.176;2022-12-28T04:25:24;21.70;;;10.95;;
69892;SDS011;61212;42.688;22.176;2022-12-28T04:27:50;17.42;;;10.60;;
69892;SDS011;61212;42.688;22.176;2022-12-28T04:30:17;31.42;;;14.95;;
69892;SDS011;61212;42.688;22.176;2022-12-28T04:32:43;30.38;;;15.52;;
69892;SDS011;61212;42.688;22.176;2022-12-28T04:35:09;26.67;;;15.48;;
69892;SDS011;61212;42.688;22.176;2022-12-28T04:37:35;29.80;;;15.05;;
69892;SDS011;61212;42.688;22.176;2022-12-28T04:40:01;26.50;;;14.82;;
69892;SDS011;61212;42.688;22.176;2022-12-28T04:42:27;33.25;;;17.95;;
69892;SDS011;61212;42.688;22.176;2022-12-28T04:44:53;27.20;;;15.85;;
69892;SDS011;61212;42.688;22.176;2022-12-28T04:47:20;27.02;;;15.00;;
69892;SDS011;61212;42.688;22.176;2022-12-28T04:49:46;25.70;;;12.77;;
69892;SDS011;61212;42.688;22.176;2022-12-28T04:52:12;26.10;;;14.77;;
69892;SDS011;61212;42.688;22.176;2022-12-28T04:54:38;24.73;;;12.90;;
69892;SDS011;61212;42.688;22.176;2022-12-28T04:57:04;20.13;;;11.73;;
69892;SDS011;61212;42.688;22.176;2022-12-28T04:59:30;19.45;;;11.70;;
69892;SDS011;61212;42.688;22.176;2022-12-28T05:01:56;20.88;;;11.13;;
69892;SDS011;61212;42.688;22.176;2022-12-28T05:04:23;18.38;;;11.48;;
69892;SDS011;61212;42.688;22.176;2022-12-28T05:06:49;16.25;;;10.27;;
69892;SDS011;61212;42.688;22.176;2022-12-28T05:09:15;16.55;;;10.13;;
69892;SDS011;61212;42.688;22.176;2022-12-28T05:11:43;22.15;;;12.00;;
69892;SDS011;61212;42.688;22.176;2022-12-28T05:14:09;20.13;;;11.68;;
69892;SDS011;61212;42.688;22.176;2022-12-28T05:16:35;18.38;;;11.05;;
69892;SDS011;61212;42.688;22.176;2022-12-28T05:19:01;20.88;;;11.68;;
69892;SDS011;61212;42.688;22.176;2022-12-28T05:21:27;20.48;;;11.32;;
69892;SDS011;61212;42.688;22.176;2022-12-28T05:23:54;23.77;;;12.23;;
69892;SDS011;61212;42.688;22.176;2022-12-28T05:26:21;26.08;;;12.63;;
69892;SDS011;61212;42.688;22.176;2022-12-28T05:28:47;19.40;;;11.23;;
69892;SDS011;61212;42.688;22.176;2022-12-28T05:31:15;21.10;;;11.90;;
69892;SDS011;61212;42.688;22.176;2022-12-28T05:33:42;20.92;;;11.45;;
69892;SDS011;61212;42.688;22.176;2022-12-28T05:36:10;20.98;;;11.98;;
69892;SDS011;61212;42.688;22.176;2022-12-28T05:38:36;18.95;;;11.00;;
69892;SDS011;61212;42.688;22.176;2022-12-28T05:41:06;23.08;;;12.43;;
69892;SDS011;61212;42.688;22.176;2022-12-28T05:43:33;37.30;;;22.48;;
69892;SDS011;61212;42.688;22.176;2022-12-28T05:46:03;64.55;;;41.95;;
69892;SDS011;61212;42.688;22.176;2022-12-28T05:48:33;42.70;;;25.45;;
69892;SDS011;61212;42.688;22.176;2022-12-28T05:51:02;43.55;;;26.92;;
69892;SDS011;61212;42.688;22.176;2022-12-28T05:53:29;42.47;;;24.90;;
69892;SDS011;61212;42.688;22.176;2022-12-28T05:56:15;42.70;;;23.25;;
69892;SDS011;61212;42.688;22.176;2022-12-28T05:58:42;74.22;;;30.27;;
69892;SDS011;61212;42.688;22.176;2022-12-28T06:01:09;65.72;;;30.60;;
69892;SDS011;61212;42.688;22.176;2022-12-28T06:03:36;56.08;;;27.95;;
69892;SDS011;61212;42.688;22.176;2022-12-28T06:06:05;75.78;;;39.60;;
69892;SDS011;61212;42.688;22.176;2022-12-28T06:08:32;74.80;;;38.75;;
69892;SDS011;61212;42.688;22.176;2022-12-28T06:10:59;67.18;;;35.00;;
69892;SDS011;61212;42.688;22.176;2022-12-28T06:13:25;57.95;;;32.75;;
69892;SDS011;61212;42.688;22.176;2022-12-28T06:15:51;35.97;;;21.00;;
69892;SDS011;61212;42.688;22.176;2022-12-28T06:18:17;23.35;;;13.75;;
69892;SDS011;61212;42.688;22.176;2022-12-28T06:20:43;27.95;;;17.27;;
69892;SDS011;61212;42.688;22.176;2022-12-28T06:23:10;72.80;;;44.78;;
69892;SDS011;61212;42.688;22.176;2022-12-28T06:25:36;21.15;;;14.55;;
69892;SDS011;61212;42.688;22.176;2022-12-28T06:28:02;12.65;;;7.28;;
69892;SDS011;61212;42.688;22.176;2022-12-28T06:30:28;16.50;;;7.82;;
69892;SDS011;61212;42.688;22.176;2022-12-28T06:32:55;14.80;;;7.53;;
69892;SDS011;61212;42.688;22.176;2022-12-28T06:35:21;15.27;;;8.68;;
69892;SDS011;61212;42.688;22.176;2022-12-28T06:37:47;14.18;;;7.72;;
69892;SDS011;61212;42.688;22.176;2022-12-28T06:40:14;15.15;;;8.35;;
69892;SDS011;61212;42.688;22.176;2022-12-28T06:42:40;24.98;;;13.95;;
69892;SDS011;61212;42.688;22.176;2022-12-28T06:45:06;35.38;;;18.85;;
69892;SDS011;61212;42.688;22.176;2022-12-28T06:47:32;32.08;;;17.25;;
69892;SDS011;61212;42.688;22.176;2022-12-28T06:50:01;41.20;;;21.42;;
69892;SDS011;61212;42.688;22.176;2022-12-28T06:52:27;39.22;;;22.17;;
69892;SDS011;61212;42.688;22.176;2022-12-28T06:54:53;41.35;;;21.70;;
69892;SDS011;61212;42.688;22.176;2022-12-28T06:57:19;44.17;;;23.77;;
69892;SDS011;61212;42.688;22.176;2022-12-28T06:59:45;42.60;;;23.77;;
69892;SDS011;61212;42.688;22.176;2022-12-28T07:02:11;67.47;;;39.45;;
69892;SDS011;61212;42.688;22.176;2022-12-28T07:04:37;73.53;;;42.67;;
69892;SDS011;61212;42.688;22.176;2022-12-28T07:07:03;77.60;;;41.58;;
69892;SDS011;61212;42.688;22.176;2022-12-28T07:09:29;51.03;;;29.85;;
69892;SDS011;61212;42.688;22.176;2022-12-28T07:11:55;55.25;;;30.33;;
69892;SDS011;61212;42.688;22.176;2022-12-28T07:14:21;59.67;;;34.33;;
69892;SDS011;61212;42.688;22.176;2022-12-28T07:16:47;67.30;;;39.10;;
69892;SDS011;61212;42.688;22.176;2022-12-28T07:19:14;59.63;;;33.78;;
69892;SDS011;61212;42.688;22.176;2022-12-28T07:21:40;45.40;;;27.20;;
69892;SDS011;61212;42.688;22.176;2022-12-28T07:24:06;47.60;;;28.15;;
69892;SDS011;61212;42.688;22.176;2022-12-28T07:26:33;42.08;;;23.38;;
69892;SDS011;61212;42.688;22.176;2022-12-28T07:29:00;29.70;;;17.80;;
69892;SDS011;61212;42.688;22.176;2022-12-28T07:31:27;26.88;;;15.90;;
69892;SDS011;61212;42.688;22.176;2022-12-28T07:33:55;25.35;;;13.68;;
69892;SDS011;61212;42.688;22.176;2022-12-28T07:36:22;26.17;;;13.30;;
69892;SDS011;61212;42.688;22.176;2022-12-28T07:38:48;35.13;;;18.45;;
69892;SDS011;61212;42.688;22.176;2022-12-28T07:41:15;43.10;;;23.90;;
69892;SDS011;61212;42.688;22.176;2022-12-28T07:43:42;52.60;;;29.83;;
69892;SDS011;61212;42.688;22.176;2022-12-28T07:48:34;97.82;;;55.15;;
69892;SDS011;61212;42.688;22.176;2022-12-28T07:51:07;44.85;;;26.55;;
69892;SDS011;61212;42.688;22.176;2022-12-28T07:53:34;50.63;;;28.88;;
69892;SDS011;61212;42.688;22.176;2022-12-28T07:56:01;59.97;;;29.75;;
69892;SDS011;61212;42.688;22.176;2022-12-28T07:58:27;51.47;;;28.88;;
69892;SDS011;61212;42.688;22.176;2022-12-28T08:00:53;41.35;;;24.20;;
69892;SDS011;61212;42.688;22.176;2022-12-28T08:03:19;45.05;;;25.73;;
69892;SDS011;61212;42.688;22.176;2022-12-28T08:05:45;37.08;;;20.63;;
69892;SDS011;61212;42.688;22.176;2022-12-28T08:08:11;22.85;;;12.55;;
69892;SDS011;61212;42.688;22.176;2022-12-28T08:10:37;22.98;;;11.85;;
69892;SDS011;61212;42.688;22.176;2022-12-28T08:13:04;18.63;;;11.15;;
69892;SDS011;61212;42.688;22.176;2022-12-28T08:15:30;18.90;;;9.60;;
69892;SDS011;61212;42.688;22.176;2022-12-28T08:17:56;16.13;;;8.18;;
69892;SDS011;61212;42.688;22.176;2022-12-28T08:20:22;23.65;;;13.25;;
69892;SDS011;61212;42.688;22.176;2022-12-28T08:22:48;18.92;;;12.93;;
69892;SDS011;61212;42.688;22.176;2022-12-28T08:25:14;16.75;;;10.38;;
69892;SDS011;61212;42.688;22.176;2022-12-28T08:27:40;20.42;;;10.80;;
69892;SDS011;61212;42.688;22.176;2022-12-28T08:30:06;21.13;;;10.52;;
69892;SDS011;61212;42.688;22.176;2022-12-28T08:32:32;18.17;;;10.15;;
69892;SDS011;61212;42.688;22.176;2022-12-28T08:34:59;25.38;;;13.55;;
69892;SDS011;61212;42.688;22.176;2022-12-28T08:37:25;23.15;;;12.32;;
69892;SDS011;61212;42.688;22.176;2022-12-28T08:39:51;16.60;;;10.30;;
69892;SDS011;61212;42.688;22.176;2022-12-28T08:42:17;15.70;;;10.00;;
69892;SDS011;61212;42.688;22.176;2022-12-28T08:44:43;17.33;;;10.23;;
69892;SDS011;61212;42.688;22.176;2022-12-28T08:47:09;18.27;;;10.75;;
69892;SDS011;61212;42.688;22.176;2022-12-28T08:49:35;14.23;;;9.05;;
69892;SDS011;61212;42.688;22.176;2022-12-28T08:52:01;13.77;;;8.60;;
69892;SDS011;61212;42.688;22.176;2022-12-28T08:54:27;15.93;;;8.75;;
69892;SDS011;61212;42.688;22.176;2022-12-28T08:56:53;17.17;;;10.10;;
69892;SDS011;61212;42.688;22.176;2022-12-28T08:59:19;20.27;;;11.57;;
69892;SDS011;61212;42.688;22.176;2022-12-28T09:01:46;22.05;;;11.73;;
69892;SDS011;61212;42.688;22.176;2022-12-28T09:04:13;19.23;;;11.43;;
69892;SDS011;61212;42.688;22.176;2022-12-28T09:06:40;18.35;;;11.23;;
69892;SDS011;61212;42.688;22.176;2022-12-28T09:09:07;19.63;;;10.90;;
69892;SDS011;61212;42.688;22.176;2022-12-28T09:11:35;29.33;;;18.73;;
69892;SDS011;61212;42.688;22.176;2022-12-28T09:14:02;55.42;;;25.67;;
69892;SDS011;61212;42.688;22.176;2022-12-28T09:16:28;37.20;;;20.88;;
69892;SDS011;61212;42.688;22.176;2022-12-28T09:18:55;32.40;;;17.45;;
69892;SDS011;61212;42.688;22.176;2022-12-28T09:21:23;27.00;;;14.07;;
69892;SDS011;61212;42.688;22.176;2022-12-28T09:23:49;15.48;;;8.73;;
69892;SDS011;61212;42.688;22.176;2022-12-28T09:26:17;17.85;;;11.40;;
69892;SDS011;61212;42.688;22.176;2022-12-28T09:28:47;19.40;;;12.30;;
69892;SDS011;61212;42.688;22.176;2022-12-28T09:31:14;24.92;;;13.05;;
69892;SDS011;61212;42.688;22.176;2022-12-28T09:33:40;26.85;;;11.68;;
69892;SDS011;61212;42.688;22.176;2022-12-28T09:36:29;41.95;;;20.00;;
69892;SDS011;61212;42.688;22.176;2022-12-28T09:38:55;29.67;;;17.20;;
69892;SDS011;61212;42.688;22.176;2022-12-28T09:43:53;25.80;;;14.13;;
69892;SDS011;61212;42.688;22.176;2022-12-28T09:46:20;26.50;;;14.63;;
69892;SDS011;61212;42.688;22.176;2022-12-28T09:48:52;22.17;;;10.73;;
69892;SDS011;61212;42.688;22.176;2022-12-28T09:51:20;29.60;;;18.42;;
69892;SDS011;61212;42.688;22.176;2022-12-28T09:53:48;24.33;;;14.55;;
69892;SDS011;61212;42.688;22.176;2022-12-28T09:58:59;22.58;;;14.73;;
69892;SDS011;61212;42.688;22.176;2022-12-28T10:01:25;22.40;;;14.98;;
69892;SDS011;61212;42.688;22.176;2022-12-28T10:03:52;39.38;;;19.70;;
69892;SDS011;61212;42.688;22.176;2022-12-28T10:06:21;26.35;;;14.52;;
69892;SDS011;61212;42.688;22.176;2022-12-28T10:08:48;25.25;;;15.23;;
69892;SDS011;61212;42.688;22.176;2022-12-28T10:11:17;22.67;;;13.88;;
69892;SDS011;61212;42.688;22.176;2022-12-28T10:13:44;24.30;;;13.18;;
69892;SDS011;61212;42.688;22.176;2022-12-28T10:16:17;17.33;;;10.02;;
69892;SDS011;61212;42.688;22.176;2022-12-28T10:18:44;16.97;;;10.60;;
69892;SDS011;61212;42.688;22.176;2022-12-28T10:21:10;22.05;;;12.57;;
69892;SDS011;61212;42.688;22.176;2022-12-28T10:23:37;17.90;;;10.52;;
69892;SDS011;61212;42.688;22.176;2022-12-28T10:26:03;17.17;;;10.02;;
69892;SDS011;61212;42.688;22.176;2022-12-28T10:28:40;15.70;;;10.25;;
69892;SDS011;61212;42.688;22.176;2022-12-28T10:31:09;19.20;;;10.70;;
69892;SDS011;61212;42.688;22.176;2022-12-28T10:33:39;15.82;;;9.70;;
69892;SDS011;61212;42.688;22.176;2022-12-28T10:36:09;19.10;;;10.18;;
69892;SDS011;61212;42.688;22.176;2022-12-28T10:38:36;18.20;;;10.88;;
69892;SDS011;61212;42.688;22.176;2022-12-28T10:41:03;27.33;;;12.75;;
69892;SDS011;61212;42.688;22.176;2022-12-28T10:43:34;23.45;;;13.57;;
69892;SDS011;61212;42.688;22.176;2022-12-28T10:46:01;31.42;;;17.98;;
69892;SDS011;61212;42.688;22.176;2022-12-28T10:48:31;42.38;;;20.23;;
69892;SDS011;61212;42.688;22.176;2022-12-28T10:58:45;32.40;;;17.55;;
69892;SDS011;61212;42.688;22.176;2022-12-28T11:03:38;15.80;;;8.85;;
69892;SDS011;61212;42.688;22.176;2022-12-28T11:08:37;13.20;;;8.70;;
69892;SDS011;61212;42.688;22.176;2022-12-28T11:11:04;17.40;;;7.93;;
69892;SDS011;61212;42.688;22.176;2022-12-28T11:13:30;16.63;;;8.85;;
69892;SDS011;61212;42.688;22.176;2022-12-28T11:15:57;18.23;;;9.60;;
69892;SDS011;61212;42.688;22.176;2022-12-28T11:18:23;16.92;;;10.20;;
69892;SDS011;61212;42.688;22.176;2022-12-28T11:20:50;18.13;;;11.75;;
69892;SDS011;61212;42.688;22.176;2022-12-28T11:23:18;19.30;;;11.70;;
69892;SDS011;61212;42.688;22.176;2022-12-28T11:25:44;21.63;;;10.55;;
69892;SDS011;61212;42.688;22.176;2022-12-28T11:28:11;18.13;;;10.52;;
69892;SDS011;61212;42.688;22.176;2022-12-28T11:30:40;29.08;;;16.77;;
69892;SDS011;61212;42.688;22.176;2022-12-28T11:33:06;18.65;;;11.18;;
69892;SDS011;61212;42.688;22.176;2022-12-28T11:35:35;21.48;;;12.38;;
69892;SDS011;61212;42.688;22.176;2022-12-28T11:38:03;20.25;;;12.85;;
69892;SDS011;61212;42.688;22.176;2022-12-28T11:40:46;26.95;;;15.65;;
69892;SDS011;61212;42.688;22.176;2022-12-28T11:45:58;19.17;;;12.07;;
69892;SDS011;61212;42.688;22.176;2022-12-28T11:51:03;16.38;;;9.38;;
69892;SDS011;61212;42.688;22.176;2022-12-28T11:56:00;17.73;;;11.52;;
69892;SDS011;61212;42.688;22.176;2022-12-28T12:06:20;25.92;;;15.13;;
69892;SDS011;61212;42.688;22.176;2022-12-28T12:08:47;16.77;;;11.75;;
69892;SDS011;61212;42.688;22.176;2022-12-28T12:13:43;24.92;;;16.00;;
69892;SDS011;61212;42.688;22.176;2022-12-28T12:16:23;25.52;;;16.35;;
69892;SDS011;61212;42.688;22.176;2022-12-28T12:18:52;21.95;;;12.32;;
69892;SDS011;61212;42.688;22.176;2022-12-28T12:21:27;21.42;;;11.93;;
69892;SDS011;61212;42.688;22.176;2022-12-28T12:24:13;26.02;;;10.85;;
69892;SDS011;61212;42.688;22.176;2022-12-28T12:26:52;29.63;;;13.07;;
69892;SDS011;61212;42.688;22.176;2022-12-28T12:29:29;33.72;;;17.45;;
69892;SDS011;61212;42.688;22.176;2022-12-28T12:32:00;30.83;;;16.60;;
69892;SDS011;61212;42.688;22.176;2022-12-28T12:37:26;32.08;;;11.43;;
69892;SDS011;61212;42.688;22.176;2022-12-28T12:53:10;76.13;;;43.42;;
69892;SDS011;61212;42.688;22.176;2022-12-28T13:05:48;22.08;;;14.32;;
69892;SDS011;61212;42.688;22.176;2022-12-28T13:08:20;19.73;;;11.15;;
69892;SDS011;61212;42.688;22.176;2022-12-28T13:10:47;19.95;;;11.32;;
69892;SDS011;61212;42.688;22.176;2022-12-28T13:13:32;19.40;;;12.15;;
69892;SDS011;61212;42.688;22.176;2022-12-28T13:16:09;17.02;;;11.18;;
69892;SDS011;61212;42.688;22.176;2022-12-28T13:18:36;19.67;;;10.02;;
69892;SDS011;61212;42.688;22.176;2022-12-28T13:21:03;15.20;;;10.27;;
69892;SDS011;61212;42.688;22.176;2022-12-28T13:23:30;14.60;;;8.75;;
69892;SDS011;61212;42.688;22.176;2022-12-28T13:25:58;14.95;;;9.90;;
69892;SDS011;61212;42.688;22.176;2022-12-28T13:28:28;16.05;;;9.98;;
69892;SDS011;61212;42.688;22.176;2022-12-28T13:33:33;18.42;;;10.70;;
69892;SDS011;61212;42.688;22.176;2022-12-28T13:38:34;18.42;;;11.07;;
69892;SDS011;61212;42.688;22.176;2022-12-28T13:41:00;22.35;;;12.93;;
69892;SDS011;61212;42.688;22.176;2022-12-28T13:45:57;22.75;;;12.40;;
69892;SDS011;61212;42.688;22.176;2022-12-28T13:48:40;19.92;;;13.05;;
69892;SDS011;61212;42.688;22.176;2022-12-28T13:51:08;44.13;;;28.10;;
69892;SDS011;61212;42.688;22.176;2022-12-28T13:53:35;24.13;;;15.27;;
69892;SDS011;61212;42.688;22.176;2022-12-28T13:56:01;20.00;;;12.80;;
69892;SDS011;61212;42.688;22.176;2022-12-28T13:58:35;23.00;;;15.00;;
69892;SDS011;61212;42.688;22.176;2022-12-28T14:01:03;23.50;;;13.48;;
69892;SDS011;61212;42.688;22.176;2022-12-28T14:03:31;20.42;;;13.00;;
69892;SDS011;61212;42.688;22.176;2022-12-28T14:05:57;26.55;;;13.98;;
69892;SDS011;61212;42.688;22.176;2022-12-28T14:08:25;22.48;;;13.45;;
69892;SDS011;61212;42.688;22.176;2022-12-28T14:10:52;21.35;;;12.50;;
69892;SDS011;61212;42.688;22.176;2022-12-28T14:13:21;30.02;;;16.80;;
69892;SDS011;61212;42.688;22.176;2022-12-28T14:15:48;29.55;;;18.65;;
69892;SDS011;61212;42.688;22.176;2022-12-28T14:18:15;29.02;;;18.85;;
69892;SDS011;61212;42.688;22.176;2022-12-28T14:20:48;27.45;;;16.58;;
69892;SDS011;61212;42.688;22.176;2022-12-28T14:26:08;28.60;;;16.80;;
69892;SDS011;61212;42.688;22.176;2022-12-28T14:28:38;38.03;;;21.25;;
69892;SDS011;61212;42.688;22.176;2022-12-28T14:31:06;43.58;;;26.70;;
69892;SDS011;61212;42.688;22.176;2022-12-28T14:33:33;41.38;;;24.33;;
69892;SDS011;61212;42.688;22.176;2022-12-28T14:36:01;36.95;;;21.48;;
69892;SDS011;61212;42.688;22.176;2022-12-28T14:38:31;43.33;;;24.23;;
69892;SDS011;61212;42.688;22.176;2022-12-28T14:40:59;78.68;;;41.33;;
69892;SDS011;61212;42.688;22.176;2022-12-28T14:43:29;79.75;;;42.00;;
69892;SDS011;61212;42.688;22.176;2022-12-28T14:51:48;35.78;;;20.83;;
69892;SDS011;61212;42.688;22.176;2022-12-28T14:54:15;46.20;;;25.25;;
69892;SDS011;61212;42.688;22.176;2022-12-28T14:56:43;43.22;;;24.23;;
69892;SDS011;61212;42.688;22.176;2022-12-28T14:59:14;36.97;;;21.80;;
69892;SDS011;61212;42.688;22.176;2022-12-28T15:01:44;49.35;;;27.98;;
69892;SDS011;61212;42.688;22.176;2022-12-28T15:06:55;57.35;;;36.00;;
69892;SDS011;61212;42.688;22.176;2022-12-28T15:09:21;73.72;;;40.58;;
69892;SDS011;61212;42.688;22.176;2022-12-28T15:11:47;55.90;;;32.38;;
69892;SDS011;61212;42.688;22.176;2022-12-28T15:14:13;51.10;;;29.23;;
69892;SDS011;61212;42.688;22.176;2022-12-28T15:16:39;57.90;;;31.15;;
69892;SDS011;61212;42.688;22.176;2022-12-28T15:19:05;49.92;;;28.58;;
69892;SDS011;61212;42.688;22.176;2022-12-28T15:21:31;50.83;;;28.85;;
69892;SDS011;61212;42.688;22.176;2022-12-28T15:23:57;54.10;;;30.65;;
69892;SDS011;61212;42.688;22.176;2022-12-28T15:26:26;53.58;;;32.20;;
69892;SDS011;61212;42.688;22.176;2022-12-28T15:28:52;69.90;;;39.65;;
69892;SDS011;61212;42.688;22.176;2022-12-28T15:31:19;80.45;;;45.33;;
69892;SDS011;61212;42.688;22.176;2022-12-28T15:33:46;78.75;;;44.47;;
69892;SDS011;61212;42.688;22.176;2022-12-28T15:36:13;81.22;;;45.22;;
69892;SDS011;61212;42.688;22.176;2022-12-28T15:38:40;83.78;;;46.13;;
69892;SDS011;61212;42.688;22.176;2022-12-28T15:41:06;102.07;;;53.75;;
69892;SDS011;61212;42.688;22.176;2022-12-28T15:43:52;95.25;;;49.05;;
69892;SDS011;61212;42.688;22.176;2022-12-28T15:46:19;59.75;;;35.33;;
69892;SDS011;61212;42.688;22.176;2022-12-28T15:48:45;63.22;;;37.58;;
69892;SDS011;61212;42.688;22.176;2022-12-28T15:51:12;66.28;;;41.30;;
69892;SDS011;61212;42.688;22.176;2022-12-28T15:53:38;66.95;;;40.97;;
69892;SDS011;61212;42.688;22.176;2022-12-28T15:56:04;63.70;;;37.50;;
69892;SDS011;61212;42.688;22.176;2022-12-28T15:58:30;74.57;;;41.42;;
69892;SDS011;61212;42.688;22.176;2022-12-28T16:00:56;70.05;;;40.38;;
69892;SDS011;61212;42.688;22.176;2022-12-28T16:03:22;83.80;;;45.72;;
69892;SDS011;61212;42.688;22.176;2022-12-28T16:05:48;76.47;;;44.22;;
69892;SDS011;61212;42.688;22.176;2022-12-28T16:08:14;83.20;;;44.55;;